createdAt,value
2022-12-25T00:00:21.232Z,61
2022-12-25T00:05:18.184Z,60
2022-12-25T00:10:17.942Z,60
2022-12-25T00:15:21.900Z,60
2022-12-25T00:20:21.746Z,60
2022-12-25T00:25:26.767Z,60
2022-12-25T00:30:15.705Z,60
2022-12-25T00:35:16.563Z,60
2022-12-25T00:40:18.341Z,60
2022-12-25T00:45:20.397Z,60
2022-12-25T00:50:18.496Z,60
2022-12-25T00:55:16.300Z,59
2022-12-25T01:00:14.186Z,59
2022-12-25T01:05:17.948Z,60
2022-12-25T01:10:15.904Z,59
2022-12-25T01:15:19.754Z,59
2022-12-25T01:20:19.698Z,59
2022-12-25T01:25:22.685Z,59
2022-12-25T01:30:15.703Z,58
2022-12-25T01:35:14.442Z,58
2022-12-25T01:40:16.413Z,58
2022-12-25T01:45:22.624Z,58
2022-12-25T01:50:16.644Z,58
2022-12-25T01:55:20.387Z,58
2022-12-25T02:00:16.310Z,58
2022-12-25T02:05:20.160Z,58
2022-12-25T02:10:17.894Z,57
2022-12-25T02:15:17.989Z,57
2022-12-25T02:20:14.012Z,58
2022-12-25T02:25:19.714Z,58
2022-12-25T02:30:14.601Z,58
2022-12-25T02:35:18.776Z,58
2022-12-25T02:40:16.957Z,58
2022-12-25T02:45:17.731Z,58
2022-12-25T02:50:16.704Z,58
2022-12-25T02:55:20.542Z,58
2022-12-25T03:00:16.313Z,58
2022-12-25T03:05:14.181Z,58
2022-12-25T03:10:21.961Z,58
2022-12-25T03:15:18.066Z,58
2022-12-25T03:20:20.001Z,58
2022-12-25T03:25:15.935Z,58
2022-12-25T03:30:15.900Z,58
2022-12-25T03:35:17.707Z,58
2022-12-25T03:40:16.553Z,58
2022-12-25T03:45:14.371Z,58
2022-12-25T03:50:16.140Z,58
2022-12-25T03:55:20.000Z,58
2022-12-25T04:00:13.781Z,58
2022-12-25T04:05:16.513Z,58
2022-12-25T04:10:14.411Z,58
2022-12-25T04:15:16.159Z,58
2022-12-25T04:20:16.042Z,58
2022-12-25T04:25:13.773Z,58
2022-12-25T04:30:14.675Z,58
2022-12-25T04:35:18.461Z,58
2022-12-25T04:40:18.344Z,58
2022-12-25T04:45:18.276Z,58
2022-12-25T04:50:14.117Z,58
2022-12-25T04:55:13.938Z,58
2022-12-25T05:00:19.833Z,58
2022-12-25T05:05:17.759Z,57
2022-12-25T05:10:18.642Z,58
2022-12-25T05:15:14.413Z,58
2022-12-25T05:20:16.182Z,58
2022-12-25T05:25:16.248Z,58
2022-12-25T05:30:16.041Z,58
2022-12-25T05:35:15.831Z,58
2022-12-25T05:40:15.579Z,57
2022-12-25T05:45:18.435Z,57
2022-12-25T05:50:16.257Z,57
2022-12-25T05:55:16.005Z,58
2022-12-25T06:00:14.045Z,58
2022-12-25T06:05:16.074Z,58
2022-12-25T06:10:21.810Z,58
2022-12-25T06:15:13.810Z,58
2022-12-25T06:20:21.700Z,57
2022-12-25T06:25:14.602Z,57
2022-12-25T06:30:16.407Z,57
2022-12-25T06:35:14.221Z,57
2022-12-25T06:40:16.086Z,56
2022-12-25T06:45:13.955Z,57
2022-12-25T06:50:16.019Z,57
2022-12-25T06:55:22.118Z,58
2022-12-25T07:00:13.997Z,57
2022-12-25T07:05:13.626Z,58
2022-12-25T07:10:16.482Z,58
2022-12-25T07:15:16.365Z,58
2022-12-25T07:20:16.327Z,58
2022-12-25T07:25:16.112Z,56
2022-12-25T07:30:17.871Z,58
2022-12-25T07:35:15.693Z,57
2022-12-25T07:40:18.503Z,58
2022-12-25T07:45:22.884Z,58
2022-12-25T07:50:15.860Z,58
2022-12-25T07:55:13.684Z,57
2022-12-25T08:00:15.547Z,58
2022-12-25T08:05:14.539Z,58
2022-12-25T08:10:16.446Z,58
2022-12-25T08:15:14.253Z,57
2022-12-25T08:20:18.152Z,59
2022-12-25T08:25:14.057Z,57
2022-12-25T08:30:15.046Z,59
2022-12-25T08:35:19.906Z,62
2022-12-25T08:40:13.965Z,58
2022-12-25T08:45:13.907Z,60
2022-12-25T08:50:14.393Z,61
2022-12-25T08:55:20.355Z,62
2022-12-25T09:00:14.533Z,62
2022-12-25T09:05:16.273Z,61
2022-12-25T09:10:16.293Z,60
2022-12-25T09:15:16.415Z,60
2022-12-25T09:20:20.370Z,60
2022-12-25T09:25:18.277Z,60
2022-12-25T09:30:14.186Z,60
2022-12-25T09:35:17.913Z,60
2022-12-25T09:40:13.905Z,59
2022-12-25T09:45:13.991Z,60
2022-12-25T09:50:18.490Z,59
2022-12-25T09:55:22.437Z,60
2022-12-25T10:00:18.354Z,60
2022-12-25T10:05:16.387Z,59
2022-12-25T10:10:14.477Z,59
2022-12-25T10:15:16.672Z,59
2022-12-25T10:20:16.681Z,59
2022-12-25T10:25:20.764Z,59
2022-12-25T10:30:16.668Z,58
2022-12-25T10:35:14.666Z,59
2022-12-25T10:40:18.517Z,60
2022-12-25T10:45:24.783Z,59
2022-12-25T10:50:15.967Z,59
2022-12-25T10:55:17.776Z,59
2022-12-25T11:00:20.714Z,59
2022-12-25T11:05:16.328Z,59
2022-12-25T11:10:17.464Z,59
2022-12-25T11:15:19.490Z,58
2022-12-25T11:20:19.010Z,59
2022-12-25T11:25:16.360Z,59
2022-12-25T11:30:16.399Z,59
2022-12-25T11:35:18.297Z,59
2022-12-25T11:40:14.488Z,59
2022-12-25T11:45:16.729Z,60
2022-12-25T11:50:16.968Z,59
2022-12-25T11:55:15.795Z,58
2022-12-25T12:00:14.762Z,60
2022-12-25T12:05:14.341Z,59
2022-12-25T12:10:18.368Z,59
2022-12-25T12:15:14.295Z,59
2022-12-25T12:20:14.337Z,59
2022-12-25T12:25:16.109Z,59
2022-12-25T12:30:17.853Z,59
2022-12-25T12:35:15.677Z,59
2022-12-25T12:40:18.484Z,59
2022-12-25T12:45:20.517Z,59
2022-12-25T12:50:18.589Z,59
2022-12-25T12:55:16.751Z,59
2022-12-25T13:00:32.630Z,59
2022-12-25T13:05:18.578Z,58
2022-12-25T13:10:14.502Z,58
2022-12-25T13:15:16.325Z,58
2022-12-25T13:20:24.587Z,58
2022-12-25T13:25:15.836Z,56
2022-12-25T13:30:27.631Z,54
2022-12-25T13:35:16.565Z,54
2022-12-25T13:40:14.530Z,55
2022-12-25T13:45:20.359Z,55
2022-12-25T13:50:16.287Z,57
2022-12-25T13:55:14.168Z,56
2022-12-25T14:00:15.958Z,56
2022-12-25T14:05:16.327Z,58
2022-12-25T14:10:16.124Z,57
2022-12-25T14:15:15.979Z,57
2022-12-25T14:20:26.716Z,57
2022-12-25T14:25:14.643Z,57
2022-12-25T14:30:16.525Z,57
2022-12-25T14:35:23.945Z,57
2022-12-25T14:40:20.323Z,57
2022-12-25T14:45:14.192Z,57
2022-12-25T14:50:14.007Z,58
2022-12-25T14:55:20.091Z,58
2022-12-25T15:00:14.047Z,58
2022-12-25T15:05:14.584Z,57
2022-12-25T15:11:17.337Z,59
2022-12-25T15:15:18.200Z,59
2022-12-25T15:20:18.614Z,58
2022-12-25T15:25:18.724Z,58
2022-12-25T15:30:25.187Z,59
2022-12-25T15:35:14.350Z,58
2022-12-25T15:40:22.091Z,59
2022-12-25T15:45:15.938Z,58
2022-12-25T15:50:17.982Z,59
2022-12-25T15:55:13.769Z,59
2022-12-25T16:00:20.624Z,59
2022-12-25T16:05:26.277Z,59
2022-12-25T16:10:16.199Z,58
2022-12-25T16:15:18.101Z,59
2022-12-25T16:20:21.966Z,58
2022-12-25T16:25:21.874Z,59
2022-12-25T16:30:15.761Z,59
2022-12-25T16:35:18.927Z,59
2022-12-25T16:40:15.831Z,58
2022-12-25T16:45:17.776Z,59
2022-12-25T16:50:15.816Z,59
2022-12-25T16:55:17.991Z,59
2022-12-25T17:00:14.598Z,59
2022-12-25T17:05:16.202Z,59
2022-12-25T17:10:13.983Z,59
2022-12-25T17:15:14.052Z,58
2022-12-25T17:20:17.882Z,57
2022-12-25T17:25:13.708Z,59
2022-12-25T17:30:20.483Z,66
2022-12-25T17:35:22.486Z,65
2022-12-25T17:40:22.390Z,64
2022-12-25T17:45:16.347Z,63
2022-12-25T17:50:20.189Z,61
2022-12-25T17:55:28.064Z,60
2022-12-25T18:00:16.003Z,60
2022-12-25T18:05:17.383Z,62
2022-12-25T18:10:20.181Z,61
2022-12-25T18:15:14.207Z,61
2022-12-25T18:20:15.763Z,62
2022-12-25T18:25:26.923Z,61
2022-12-25T18:30:17.919Z,61
2022-12-25T18:35:17.696Z,61
2022-12-25T18:40:14.507Z,61
2022-12-25T18:45:14.548Z,61
2022-12-25T18:50:14.277Z,60
2022-12-25T18:55:18.109Z,61
2022-12-25T19:00:18.022Z,60
2022-12-25T19:05:17.616Z,61
2022-12-25T19:10:14.391Z,61
2022-12-25T19:15:16.281Z,61
2022-12-25T19:20:14.193Z,61
2022-12-25T19:25:13.869Z,61
2022-12-25T19:30:15.965Z,59
2022-12-25T19:35:17.809Z,60
2022-12-25T19:40:13.619Z,60
2022-12-25T19:45:16.442Z,60
2022-12-25T19:50:17.370Z,60
2022-12-25T19:55:16.178Z,60
2022-12-25T20:00:16.130Z,60
2022-12-25T20:05:16.160Z,60
2022-12-25T20:10:18.069Z,60
2022-12-25T20:15:22.048Z,59
2022-12-25T20:20:18.037Z,60
2022-12-25T20:25:13.934Z,60
2022-12-25T20:30:13.825Z,60
2022-12-25T20:35:13.599Z,60
2022-12-25T20:40:20.612Z,60
2022-12-25T20:45:14.532Z,60
2022-12-25T20:50:18.300Z,60
2022-12-25T20:55:14.350Z,60
2022-12-25T21:00:14.508Z,60
2022-12-25T21:05:16.363Z,60
2022-12-25T21:10:14.399Z,60
2022-12-25T21:15:18.360Z,60
2022-12-25T21:20:18.230Z,60
2022-12-25T21:25:18.234Z,60
2022-12-25T21:30:31.523Z,61
2022-12-25T21:35:22.450Z,61
2022-12-25T21:40:16.833Z,60
2022-12-25T21:45:21.667Z,60
2022-12-25T21:50:16.600Z,60
2022-12-25T21:55:14.556Z,60
2022-12-25T22:00:18.511Z,59
2022-12-25T22:05:14.297Z,60
2022-12-25T22:10:20.251Z,60
2022-12-25T22:15:18.253Z,60
2022-12-25T22:20:20.194Z,60
2022-12-25T22:25:17.874Z,60
2022-12-25T22:30:13.843Z,60
2022-12-25T22:35:13.815Z,59
2022-12-25T22:40:13.717Z,60
2022-12-25T22:45:16.629Z,59
2022-12-25T22:50:18.516Z,60
2022-12-25T22:55:18.412Z,60
2022-12-25T23:00:14.519Z,59
2022-12-25T23:05:18.383Z,59
2022-12-25T23:10:18.411Z,59
2022-12-25T23:15:26.639Z,59
2022-12-25T23:20:20.486Z,60
2022-12-25T23:25:18.253Z,59
2022-12-25T23:30:14.267Z,58
2022-12-25T23:35:14.191Z,59
2022-12-25T23:40:24.065Z,60
2022-12-25T23:45:16.200Z,59
2022-12-25T23:50:18.039Z,60
2022-12-25T23:55:18.220Z,59
